LiveATC.Net - Listen to live air traffic control over the Internet!


ICAO: LTAF  IATA: ADA   Airport: Adana Airport
City: Adana
Country: Turkey   Continent: Asia
LTAF METAR Weather: LTAF 271050Z VRB03KT CAVOK 19/00 Q1016 NOSIG
LTAF ADS-B Flight Tracking  (ADSBExchange)
LTAF Flight Activity (FlightAware)

LTAF Tower
Feed Status: DOWN
Last heard on: 2023-12-06 10:07:22 (83 days 1 hours 12 minutes ago)
Archive Access: LTAF Tower
FacilityFrequency
Adana Tower121.100

NOTICE

Unauthorized use prohibited. See LiveATC.net Terms of Service


Airport/ARTCC Code
Frequency Search
(e.g., 124.400, 128.75)
Site-wide search
 


Browse Feeds
Top 50 Feeds
HF Oceanic Feeds
Coverage Map
Bad Weather Areas

LiveATC FAQ

Increase Coverage

Contact LiveATC.net
Press Inquiries

LiveATC on iPhone
LiveATC on Android

LiveATC Mobile
(Mobile browser)

ATC Audio Archives
Interesting Recordings

LiveATC Forums


Home Page
About LiveATC.net


Terms of Use
Privacy Policy

AIRMETs/SIGMETs

FAA Airport Status
NAS Status
Arrival Demand


Server Software By:
Icecast.org
Liquidsoap